Data for 09/20/2015

Time Sea-Level Adjusted Pressure Absolute Pressure Temperature Relative Humidity Dew Point   
(mb) (inHg) (mb) (inHg) (C) (F) (%) (C) (F)
00:05 1019 30.09 848 25.04 10.5 50.9 54 1.6 34.9
00:10 1019 30.09 848 25.04 10.2 50.3 53 1.2 34.1
00:15 1019 30.09 848 25.04 10.6 51 49 0.4 32.7
00:20 1019 30.09 848 25.04 11.3 52.4 49 1.2 34.1
00:25 1019 30.09 848 25.04 11.6 52.8 48 0.9 33.6
00:30 1019 30.09 848 25.04 11.5 52.6 48 0.8 33.5
00:35 1019 30.09 848 25.04 11.5 52.6 48 0.8 33.5
00:40 1019 30.09 848 25.04 11.3 52.4 49 1 33.7
00:45 1019 30.09 848 25.04 11.2 52.1 45 -0.2 31.7
00:50 1019 30.09 848 25.04 11.9 53.3 43 -0.4 31.3
00:55 1019 30.09 848 25.04 12.7 54.9 42 0.1 32.2
01:00 1019 30.09 848 25.04 12.8 55 42 0.1 32.2
01:05 1019 30.09 848 25.04 12.8 55.1 44 1 33.8
01:10 1019 30.09 848 25.04 12.6 54.7 43 0.4 32.7
01:15 1019 30.09 848 25.04 12.9 55.3 41 0.2 32.3
01:20 1019 30.09 848 25.04 12.9 55.1 43 0.6 33.2
01:25 1019 30.09 848 25.04 12.6 54.6 43 0.3 32.5
01:30 1019 30.09 848 25.04 12.4 54.4 44 0.5 32.9
01:35 1019 30.09 848 25.04 12 53.7 46 1 33.8
01:40 1019 30.09 848 25.04 10.9 51.7 55 2.3 36.2
01:45 1019 30.09 848 25.04 9.6 49.3 59 2 35.6
01:50 1019 30.09 848 25.04 9.1 48.3 58 1.4 34.5
01:55 1019 30.09 848 25.04 9.2 48.5 60 1.8 35.2
02:00 1019 30.09 848 25.04 9.1 48.4 59 1.5 34.8
02:05 1019 30.09 848 25.04 9.3 48.8 57 1.1 34.1
02:10 1019 30.09 848 25.04 9.5 49 56 1.1 34
02:15 1019 30.09 848 25.04 9.6 49.4 55 1 33.8
02:20 1019 30.09 848 25.04 9.9 49.8 53 0.9 33.7
02:25 1019 30.09 848 25.04 10.2 50.3 55 1.5 34.7
02:30 1019 30.09 848 25.04 8.9 47.9 64 2.4 36.3
02:35 1019 30.09 848 25.04 7.8 46 60 0.6 33
02:40 1019 30.09 848 25.04 9 48.1 56 0.8 33.4
02:45 1019 30.09 848 25.04 9.2 48.5 57 1.1 34
02:50 1019 30.09 848 25.04 9.4 48.9 54 0.5 32.9
02:55 1019 30.09 848 25.04 10 50 50 0.2 32.3
03:00 1019 30.09 848 25.04 10.6 51.1 49 0.5 32.9
03:05 1019 30.09 848 25.04 10.9 51.6 47 -0 31.9
03:10 1019 30.09 848 25.04 11.2 52.1 49 0.8 33.4
03:15 1019 30.09 848 25.04 10.9 51.7 49 0.8 33.4
03:20 1019 30.09 848 25.04 11 51.7 47 0 32
03:25 1019 30.09 849 25.07 11.3 52.3 47 0.4 32.8
03:30 1019 30.09 849 25.07 11.2 52.1 47 0.4 32.7
03:35 1019 30.09 849 25.07 11.1 51.9 46 -0 31.9
03:40 1020 30.12 849 25.07 11.6 52.9 44 -0.1 31.7
03:45 1020 30.12 849 25.07 11.8 53.2 44 0 32.1
03:50 1020 30.12 849 25.07 11.6 52.9 45 0 32
03:55 1020 30.12 849 25.07 11.5 52.7 45 0.2 32.3
04:00 1020 30.12 849 25.07 11.3 52.3 45 -0.2 31.7
04:05 1020 30.12 849 25.07 11.4 52.6 45 0 32.1
04:10 1020 30.12 849 25.07 11.3 52.3 46 0.2 32.4
04:15 1020 30.12 849 25.07 11 51.8 46 -0 32
04:20 1020 30.12 849 25.07 11.1 52 45 -0.2 31.6
04:25 1019 30.09 849 25.07 11.4 52.6 45 -0.1 31.7
04:30 1019 30.09 849 25.07 11.6 52.9 44 -0.1 31.8
04:35 1020 30.12 849 25.07 11.5 52.7 44 -0.2 31.7
04:40 1019 30.09 849 25.07 11.4 52.5 45 0 32.1
04:45 1020 30.12 849 25.07 10.9 51.6 49 0.7 33.2
04:50 1020 30.12 849 25.07 10.3 50.6 48 -0.1 31.9
04:55 1020 30.12 849 25.07 10.4 50.7 49 0.3 32.5
05:00 1020 30.12 849 25.07 10.1 50.2 50 0.3 32.6
05:05 1020 30.12 849 25.07 10.2 50.4 49 0.1 32.2
05:10 1020 30.12 849 25.07 10 50.1 53 1 33.7
05:15 1020 30.12 849 25.07 9.1 48.4 57 1.2 34.1
05:20 1020 30.12 849 25.07 8.4 47.1 58 0.6 33
05:25 1020 30.12 849 25.07 8.3 47 59 0.9 33.6
05:30 1020 30.12 849 25.07 8.1 46.6 61 1 33.8
05:35 1020 30.12 849 25.07 7.7 45.8 62 0.9 33.6
05:40 1020 30.12 849 25.07 7.5 45.5 61 0.6 33
05:45 1020 30.12 849 25.07 7.7 45.8 60 0.5 32.9
05:50 1020 30.12 849 25.07 7.7 45.8 59 0.2 32.3
05:55 1019 30.09 849 25.07 7.9 46.3 59 0.4 32.7
06:00 1019 30.09 849 25.07 8 46.4 58 0.3 32.6
06:05 1019 30.09 849 25.07 8.2 46.7 57 0.2 32.3
06:10 1019 30.09 849 25.07 8.7 47.6 55 0.1 32.1
06:15 1019 30.09 849 25.07 9 48.3 54 0.2 32.4
06:20 1019 30.09 849 25.07 9.3 48.7 53 0.2 32.3
06:25 1020 30.12 849 25.07 9.4 48.9 52 0.1 32.2
06:30 1020 30.12 849 25.07 9.6 49.2 52 0.3 32.6
06:35 1020 30.12 849 25.07 9.7 49.5 53 0.6 33.1
06:40 1020 30.12 849 25.07 9.5 49 55 0.9 33.7
06:45 1020 30.12 849 25.07 9.4 48.9 55 0.9 33.6
06:50 1020 30.12 849 25.07 9.7 49.4 51 0.2 32.3
06:55 1020 30.12 849 25.07 10.4 50.7 50 0.5 32.9
07:00 1020 30.12 849 25.07 10.9 51.6 50 1.1 33.9
07:05 1020 30.12 849 25.07 11.3 52.4 48 0.8 33.5
07:10 1020 30.12 849 25.07 11.7 53.1 47 0.9 33.7
07:15 1020 30.12 849 25.07 12 53.5 48 1.4 34.5
07:20 1020 30.12 849 25.07 11.7 53 51 1.8 35.3
07:25 1020 30.12 849 25.07 11.7 53 47 0.9 33.6
07:30 1020 30.12 849 25.07 11.9 53.4 47 0.9 33.6
07:35 1020 30.12 849 25.07 12 53.5 47 0.9 33.7
07:40 1020 30.12 849 25.07 12.5 54.5 45 0.9 33.7
07:45 1020 30.12 849 25.07 13.3 56 44 1.3 34.4
07:50 1020 30.12 849 25.07 14 57.2 42 1.5 34.7
07:55 1020 30.12 849 25.07 14 57.2 43 1.6 34.9
08:00 1020 30.12 849 25.07 14.4 57.8 41 1.4 34.6
08:05 1020 30.12 849 25.07 14.7 58.5 40 1.5 34.7
08:10 1020 30.12 849 25.07 15.3 59.6 39 1.4 34.5
08:15 1020 30.12 849 25.07 15.7 60.3 38 1.6 34.9
08:20 1020 30.12 849 25.07 15.9 60.7 35 0.7 33.3
08:25 1020 30.12 849 25.07 16.2 61.2 34 0.4 32.7
08:30 1020 30.12 849 25.07 16.4 61.5 34 0.4 32.7
08:35 1020 30.12 849 25.07 16.6 61.8 34 0.7 33.3
08:40 1020 30.12 849 25.07 16.7 62.1 34 0.8 33.4
08:45 1020 30.12 849 25.07 17.2 62.9 33 0.8 33.5
08:50 1020 30.12 849 25.07 16.9 62.3 34 0.8 33.5
08:55 1020 30.12 849 25.07 17.1 62.8 33 0.8 33.5
09:00 1020 30.12 849 25.07 17.3 63.2 33 1.2 34.2
09:05 1020 30.12 849 25.07 17.2 63 33 1 33.7
09:10 1020 30.12 849 25.07 17.5 63.4 33 1 33.8
09:15 1020 30.12 849 25.07 17.6 63.8 32 1.1 33.9
09:20 1020 30.12 849 25.07 17.9 64.3 33 1.4 34.4
09:25 1020 30.12 849 25.07 18.2 64.7 32 1.3 34.3
09:30 1020 30.12 849 25.07 18.2 64.8 32 1.3 34.4
09:35 1020 30.12 849 25.07 18.3 64.9 32 1.5 34.6
09:40 1020 30.12 849 25.07 18.3 65 33 1.8 35.3
09:45 1020 30.12 849 25.07 18.3 65 32 1.5 34.7
09:50 1020 30.12 849 25.07 18.7 65.7 30 1.1 33.9
09:55 1020 30.12 849 25.07 19.3 66.7 31 1.7 35.1
10:00 1020 30.12 849 25.07 18.3 65 33 2 35.6
10:05 1020 30.12 849 25.07 18.5 65.2 31 1 33.9
10:10 1020 30.12 849 25.07 19.4 66.9 29 1.1 34
10:15 1020 30.12 849 25.07 19.7 67.4 29 1.4 34.5
10:20 1020 30.12 849 25.07 19 66.3 31 1.5 34.7
10:25 1020 30.12 849 25.07 19.1 66.4 29 0.9 33.7
10:30 1020 30.12 849 25.07 19.6 67.3 29 1.1 33.9
10:35 1020 30.12 849 25.07 20.2 68.4 29 1.8 35.2
10:40 1020 30.12 849 25.07 20.9 69.6 26 0.7 33.2
10:45 1019 30.09 849 25.07 20.7 69.2 28 1.9 35.5
10:50 1019 30.09 849 25.07 20.1 68.2 30 2.2 36
10:55 1019 30.09 849 25.07 20.3 68.6 28 1.1 34.1
11:00 1019 30.09 848 25.04 20.9 69.6 28 1.8 35.3
11:05 1019 30.09 848 25.04 20.9 69.6 27 1.3 34.4
11:10 1019 30.09 848 25.04 22.1 71.8 25 1.6 34.8
11:15 1019 30.09 848 25.04 22.4 72.3 25 1.4 34.5
11:20 1019 30.09 848 25.04 21.6 70.8 27 2.1 35.8
11:25 1019 30.09 848 25.04 21.4 70.5 26 1.5 34.7
11:30 1019 30.09 848 25.04 22 71.6 26 1.7 35
11:35 1019 30.09 848 25.04 22.4 72.3 24 0.9 33.7
11:40 1019 30.09 848 25.04 21.9 71.3 26 1.5 34.7
11:45 1019 30.09 848 25.04 21.7 71.1 26 1.4 34.4
11:50 1019 30.09 848 25.04 22.2 71.9 24 0.9 33.7
11:55 1019 30.09 848 25.04 22.9 73.1 24 1.5 34.6
12:00 1019 30.09 848 25.04 23.4 74.1 23 1.3 34.3
12:05 1019 30.09 848 25.04 23.6 74.5 19 -0.9 30.3
12:10 1019 30.09 848 25.04 23.8 74.8 20 -0.3 31.5
12:15 1019 30.09 848 25.04 23.1 73.6 21 -0.3 31.4
12:20 1019 30.09 848 25.04 23.2 73.8 20 -0.5 31.1
12:25 1019 30.09 848 25.04 23.9 75 19 -0.9 30.4
12:30 1018 30.06 848 25.04 23.8 74.8 19 -1.2 29.9
12:35 1018 30.06 848 25.04 24 75.1 18 -1.3 29.7
12:40 1018 30.06 847 25.01 23.9 75.1 19 -0.8 30.5
12:45 1018 30.06 847 25.01 24.3 75.7 18 -1.3 29.6
12:50 1018 30.06 847 25.01 24 75.2 20 0.2 32.3
12:55 1018 30.06 847 25.01 24.4 75.9 19 -0.4 31.3
13:00 1018 30.06 847 25.01 23.8 74.9 20 -0.5 31.1
13:05 1018 30.06 847 25.01 24.6 76.3 19 -0.6 30.9
13:10 1018 30.06 847 25.01 24.6 76.3 19 -0.4 31.2
13:15 1018 30.06 847 25.01 24.2 75.6 19 -0.7 30.8
13:20 1018 30.06 847 25.01 24 75.3 20 -0.4 31.2
13:25 1018 30.06 847 25.01 24.5 76.1 18 -0.8 30.5
13:30 1018 30.06 847 25.01 24.4 76 18 -1.1 30.1
13:35 1018 30.06 847 25.01 24.1 75.4 18 -1.3 29.6
13:40 1017 30.03 847 25.01 24.2 75.5 18 -1.5 29.3
13:45 1017 30.03 846 24.98 24.3 75.8 18 -1 30.1
13:50 1017 30.03 846 24.98 24.5 76.1 19 -0.4 31.3
13:55 1017 30.03 846 24.98 24.4 75.9 19 -0.3 31.5
14:00 1017 30.03 846 24.98 24.6 76.2 18 -0.8 30.6
14:05 1017 30.03 846 24.98 24.8 76.6 18 -0.6 30.9
14:10 1017 30.03 846 24.98 24.7 76.5 18 -0.6 30.9
14:15 1017 30.03 846 24.98 24.2 75.6 19 -0.7 30.7
14:20 1017 30.03 846 24.98 24 75.1 18 -1.6 29.1
14:25 1017 30.03 846 24.98 24.1 75.3 18 -1.5 29.3
14:30 1017 30.03 846 24.98 24.4 75.9 18 -0.9 30.3
14:35 1016 30 846 24.98 24.5 76.1 18 -1.1 30
14:40 1016 30 846 24.98 24.7 76.5 18 -1.2 29.9
14:45 1016 30 846 24.98 24.9 76.8 18 -0.6 30.9
14:50 1016 30 846 24.98 24.8 76.7 18 -0.6 31
14:55 1016 30 845 24.95 25 76.9 18 -0.6 30.9
15:00 1016 30 845 24.95 25 77 18 -0.6 30.9
15:05 1016 30 845 24.95 24.8 76.6 18 -0.9 30.4
15:10 1016 30 845 24.95 24.6 76.3 19 -0.5 31.1
15:15 1016 30 845 24.95 24.9 76.7 18 -1.1 30
15:20 1016 30 845 24.95 24.9 76.8 18 -0.8 30.6
15:25 1016 30 845 24.95 24.9 76.9 18 -1 30.2
15:30 1016 30 845 24.95 25.1 77.2 18 -0.6 30.9
15:35 1016 30 845 24.95 25 76.9 18 -0.6 30.8
15:40 1016 30 845 24.95 24.7 76.5 18 -1.1 30.1
15:45 1016 30 845 24.95 24.9 76.8 18 -0.8 30.6
15:50 1016 30 845 24.95 25.1 77.2 18 -0.8 30.6
15:55 1016 30 845 24.95 25.1 77.2 18 -0.6 30.9
16:00 1016 30 845 24.95 25 77.1 19 -0.3 31.5
16:05 1016 30 845 24.95 25.3 77.6 18 -0.3 31.5
16:10 1016 30 845 24.95 25.3 77.6 18 -0.7 30.8
16:15 1016 30 845 24.95 25.2 77.4 18 -0.5 31.2
16:20 1016 30 845 24.95 24.8 76.6 18 -1.1 30
16:25 1016 30 845 24.95 24.9 76.8 19 -0 32
16:30 1016 30 845 24.95 25 77.1 19 -0 32
16:35 1016 30 845 24.95 24.8 76.7 19 -0.4 31.3
16:40 1016 30 845 24.95 24.7 76.4 19 -0.5 31.1
16:45 1016 30 845 24.95 24.9 76.8 20 0.5 32.8
16:50 1016 30 845 24.95 24.8 76.7 19 0.2 32.3
16:55 1016 30 845 24.95 24.7 76.5 20 0.8 33.4
17:00 1016 30 845 24.95 24.5 76.2 20 0.4 32.8
17:05 1015 29.97 845 24.95 24.6 76.2 20 0.1 32.3
17:10 1015 29.97 845 24.95 24.5 76.2 19 -0.3 31.5
17:15 1015 29.97 845 24.95 24.4 75.8 19 -0.6 30.8
17:20 1015 29.97 844 24.92 24.3 75.8 19 -0.4 31.2
17:25 1015 29.97 844 24.92 24.1 75.3 20 0.1 32.2
17:30 1015 29.97 844 24.92 23.6 74.5 21 0.1 32.2
17:35 1015 29.97 844 24.92 23.5 74.3 22 0.9 33.6
17:40 1015 29.97 845 24.95 23.1 73.6 23 1 33.8
17:45 1015 29.97 844 24.92 22.9 73.3 23 1 33.7
17:50 1015 29.97 844 24.92 22.8 73 24 1.2 34.1
17:55 1015 29.97 844 24.92 22.6 72.6 24 1.2 34.2
18:00 1015 29.97 844 24.92 22.5 72.4 23 0.8 33.4
18:05 1015 29.97 844 24.92 22.5 72.5 23 0.7 33.2
18:10 1015 29.97 844 24.92 22.4 72.2 24 1 33.8
18:15 1015 29.97 844 24.92 22.1 71.8 24 0.6 33.1
18:20 1015 29.97 844 24.92 22.2 71.9 23 0.4 32.8
18:25 1015 29.97 844 24.92 22.1 71.8 24 0.8 33.4
18:30 1015 29.97 844 24.92 21.7 71.1 26 1.4 34.5
18:35 1015 29.97 844 24.92 21.2 70.1 27 1.5 34.7
18:40 1015 29.97 844 24.92 20.9 69.5 27 1.4 34.5
18:45 1015 29.97 844 24.92 20.7 69.2 27 1.1 34
18:50 1015 29.97 844 24.92 20.5 68.8 28 1.3 34.4
18:55 1015 29.97 844 24.92 20.3 68.5 28 1.6 34.8
19:00 1015 29.97 845 24.95 19.9 67.9 28 1 33.9
19:05 1015 29.97 845 24.95 19.8 67.7 28 1.2 34.1
19:10 1015 29.97 845 24.95 19.8 67.6 28 1.1 33.9
19:15 1015 29.97 845 24.95 19.6 67.3 29 1.1 34
19:20 1015 29.97 845 24.95 19.3 66.7 29 1.2 34.1
19:25 1015 29.97 845 24.95 19 66.1 30 1.3 34.4
19:30 1015 29.97 845 24.95 18.7 65.6 31 1.3 34.4
19:35 1015 29.97 845 24.95 18.6 65.5 31 1.2 34.1
19:40 1015 29.97 845 24.95 18.9 66 29 0.8 33.4
19:45 1016 30 845 24.95 19.3 66.7 28 0.4 32.7
19:50 1016 30 845 24.95 19.7 67.5 27 0.4 32.8
19:55 1016 30 845 24.95 19.8 67.6 27 0.4 32.7
20:00 1015 29.97 845 24.95 19.9 67.8 26 0.2 32.4
20:05 1016 30 845 24.95 20 68 27 0.4 32.7
20:10 1016 30 845 24.95 19.9 67.8 26 0 32
20:15 1016 30 845 24.95 19.9 67.8 27 0.4 32.8
20:20 1016 30 845 24.95 19.7 67.4 28 0.7 33.3
20:25 1016 30 845 24.95 19.5 67 27 0 32
20:30 1016 30 845 24.95 19.6 67.3 27 0.5 32.8
20:35 1016 30 845 24.95 18.9 66.1 29 0.8 33.5
20:40 1016 30 845 24.95 18.7 65.6 28 -0.1 31.8
20:45 1016 30 845 24.95 19.4 66.8 27 -0.1 31.9
20:50 1015 29.97 845 24.95 19.6 67.2 27 -0 32
20:55 1016 30 845 24.95 19.2 66.6 28 0.3 32.6
21:00 1016 30 845 24.95 19.1 66.4 28 0.2 32.3
21:05 1015 29.97 845 24.95 19 66.1 27 -0.3 31.5
21:10 1015 29.97 845 24.95 19.2 66.5 28 0.3 32.5
21:15 1015 29.97 845 24.95 19.1 66.3 27 -0.3 31.5
21:20 1015 29.97 845 24.95 19.2 66.6 28 0.3 32.5
21:25 1015 29.97 845 24.95 19 66.2 28 -0 32
21:30 1015 29.97 844 24.92 18.8 65.8 29 0.4 32.7
21:35 1015 29.97 844 24.92 18.4 65.2 28 -0.1 31.8
21:40 1015 29.97 844 24.92 18.4 65.1 29 0 32.1
21:45 1015 29.97 844 24.92 18.3 65 28 -0.2 31.6
21:50 1015 29.97 844 24.92 18.5 65.2 28 -0.2 31.6
21:55 1015 29.97 844 24.92 18.6 65.4 28 -0.2 31.6
22:00 1015 29.97 844 24.92 18.6 65.6 28 -0.1 31.8
22:05 1015 29.97 844 24.92 18.5 65.3 28 0 32
22:10 1015 29.97 844 24.92 18.5 65.3 28 -0.3 31.4
22:15 1015 29.97 844 24.92 18.6 65.5 28 -0.2 31.7
22:20 1015 29.97 844 24.92 18.6 65.5 29 0.3 32.5
22:25 1015 29.97 844 24.92 18.1 64.6 30 0.4 32.7
22:30 1015 29.97 844 24.92 17.6 63.7 32 1 33.7
22:35 1015 29.97 844 24.92 17 62.6 33 0.9 33.6
22:40 1015 29.97 844 24.92 16.6 61.9 33 0.5 33
22:45 1015 29.97 844 24.92 16.7 62.1 32 0.1 32.2
22:50 1015 29.97 844 24.92 17.1 62.8 32 0.5 32.9
22:55 1015 29.97 844 24.92 17.2 62.9 31 -0.1 31.9
23:00 1015 29.97 844 24.92 17.7 63.8 30 -0.1 31.9
23:05 1015 29.97 844 24.92 17.9 64.2 30 0.1 32.2
23:10 1015 29.97 844 24.92 17.7 63.9 30 0.2 32.4
23:15 1015 29.97 844 24.92 17.5 63.5 31 0.4 32.8
23:20 1015 29.97 844 24.92 17.2 62.9 32 0.5 32.9
23:25 1015 29.97 844 24.92 17 62.6 32 0.3 32.5
23:30 1015 29.97 844 24.92 17 62.6 31 -0 32
23:35 1015 29.97 844 24.92 17.3 63.2 30 -0.4 31.3
23:40 1015 29.97 844 24.92 18 64.4 29 -0.1 31.8
23:45 1015 29.97 844 24.92 18.1 64.5 29 0.1 32.3
23:50 1015 29.97 844 24.92 17.8 64 31 0.5 32.9
23:55 1015 29.97 844 24.92 17.4 63.3 32 0.5 32.9
24:00 1015 29.97 844 24.92 17.2 62.9 32 0.4 32.8